Time;durP1;ratioP1;P1;durP2;ratioP2;P2;SDS_P1;SDS_P2;PMS_P1;PMS_P2;Temp;Humidity;BMP_temperature;BMP_pressure;BME280_temperature;BME280_humidity;BME280_pressure;Samples;Min_cycle;Max_cycle;Signal;HPM_P1;HPM_P2
2023/09/30 00:00:56;;;;;;;19.08;6.95;;;13.80;99.90;;;;;;5054388;28;20018;-65
2023/09/30 00:03:22;;;;;;;15.57;7.13;;;13.80;99.90;;;;;;5059353;28;20029;-65
2023/09/30 00:05:48;;;;;;;19.75;6.38;;;13.70;99.90;;;;;;5094680;28;20089;-65
2023/09/30 00:08:13;;;;;;;16.25;6.70;;;13.70;99.90;;;;;;5094378;28;20030;-65
2023/09/30 00:10:39;;;;;;;20.42;8.02;;;13.70;99.90;;;;;;5087552;28;20121;-65
2023/09/30 00:13:06;;;;;;;22.75;7.95;;;13.60;99.90;;;;;;5074011;28;20079;-65
2023/09/30 00:15:35;;;;;;;17.73;8.02;;;13.60;99.90;;;;;;5072553;28;20702;-65
2023/09/30 00:18:01;;;;;;;22.65;10.57;;;13.50;99.90;;;;;;5073284;28;20036;-66
2023/09/30 00:20:27;;;;;;;23.60;10.15;;;13.50;99.90;;;;;;5071963;28;20029;-65
2023/09/30 00:22:53;;;;;;;20.67;8.13;;;13.50;99.90;;;;;;5074031;28;20077;-65
2023/09/30 00:25:20;;;;;;;22.67;7.40;;;13.50;99.90;;;;;;5073955;28;20025;-65
2023/09/30 00:27:46;;;;;;;19.15;7.78;;;13.50;99.90;;;;;;5072116;28;20037;-65
2023/09/30 00:30:12;;;;;;;18.58;7.43;;;13.40;99.90;;;;;;5067113;28;20063;-65
2023/09/30 00:32:39;;;;;;;20.55;7.13;;;13.30;99.90;;;;;;5053783;28;20118;-65
2023/09/30 00:35:09;;;;;;;22.02;8.00;;;13.30;99.90;;;;;;5053885;28;20044;-65
2023/09/30 00:37:34;;;;;;;21.63;8.52;;;13.20;99.90;;;;;;5072031;28;20109;-65
2023/09/30 00:40:00;;;;;;;22.75;8.43;;;13.20;99.90;;;;;;5072414;28;20668;-66
2023/09/30 00:42:26;;;;;;;22.90;8.13;;;13.10;99.90;;;;;;5070172;28;20060;-66
2023/09/30 00:44:52;;;;;;;18.13;7.68;;;13.10;99.90;;;;;;5067790;28;20040;-65
2023/09/30 00:47:20;;;;;;;18.80;7.38;;;13.10;99.90;;;;;;5071660;28;20020;-65
2023/09/30 00:49:46;;;;;;;19.90;8.40;;;13.10;99.90;;;;;;5072012;28;20060;-65
2023/09/30 00:52:12;;;;;;;18.10;6.97;;;13.10;99.90;;;;;;5071580;28;20488;-65
2023/09/30 00:54:39;;;;;;;17.70;7.18;;;13.10;99.90;;;;;;5071619;28;20036;-65
2023/09/30 00:57:05;;;;;;;20.15;7.55;;;13.10;99.90;;;;;;5072379;28;20035;-65
2023/09/30 00:59:32;;;;;;;23.70;7.20;;;13.10;99.90;;;;;;5072963;28;20033;-65
2023/09/30 01:02:00;;;;;;;18.30;6.88;;;13.20;99.90;;;;;;5067260;28;20021;-65
2023/09/30 01:04:27;;;;;;;18.95;6.60;;;13.20;99.90;;;;;;5063123;28;20427;-65
2023/09/30 01:06:52;;;;;;;18.00;6.57;;;13.20;99.90;;;;;;5073234;28;20035;-65
2023/09/30 01:09:19;;;;;;;17.73;6.82;;;13.10;99.90;;;;;;5071304;28;20025;-65
2023/09/30 01:11:44;;;;;;;16.55;6.07;;;13.10;99.90;;;;;;5052668;28;20030;-65
2023/09/30 01:14:38;;;;;;;17.70;6.38;;;13.10;99.90;;;;;;5051714;28;20040;-65
2023/09/30 01:17:04;;;;;;;15.45;6.88;;;13.00;99.90;;;;;;5053250;28;20381;-65
2023/09/30 01:19:30;;;;;;;17.63;6.40;;;13.00;99.90;;;;;;5059976;28;20460;-65
2023/09/30 01:21:59;;;;;;;17.80;6.38;;;13.00;99.90;;;;;;5072592;28;20048;-66
2023/09/30 01:24:28;;;;;;;14.85;6.13;;;12.90;99.90;;;;;;5072771;28;20043;-65
2023/09/30 01:26:54;;;;;;;19.92;6.45;;;12.90;99.90;;;;;;5066661;28;20033;-65
2023/09/30 01:29:20;;;;;;;17.33;6.03;;;12.90;99.90;;;;;;5052909;28;20051;-65
2023/09/30 01:31:49;;;;;;;17.48;5.88;;;12.90;99.90;;;;;;5052855;28;20033;-65
2023/09/30 01:34:16;;;;;;;18.80;6.28;;;12.90;99.90;;;;;;5052682;28;20029;-65
2023/09/30 01:36:42;;;;;;;20.08;7.28;;;12.90;99.90;;;;;;5058056;28;20151;-66
2023/09/30 01:39:10;;;;;;;17.17;6.68;;;12.90;99.90;;;;;;5057658;28;20028;-65
2023/09/30 01:41:36;;;;;;;20.75;6.15;;;12.90;99.90;;;;;;5052599;28;20025;-65
2023/09/30 01:44:02;;;;;;;18.88;6.18;;;12.90;99.90;;;;;;5053124;28;20029;-65
2023/09/30 01:46:27;;;;;;;19.35;6.65;;;12.90;99.90;;;;;;5068330;28;20025;-65
2023/09/30 01:48:53;;;;;;;15.63;6.15;;;13.00;99.90;;;;;;5071415;28;20028;-65
2023/09/30 01:51:18;;;;;;;17.42;6.00;;;12.90;99.90;;;;;;5072069;28;20049;-65
2023/09/30 01:53:44;;;;;;;16.65;5.88;;;12.90;99.90;;;;;;5061211;28;20051;-66
2023/09/30 01:56:10;;;;;;;19.00;6.68;;;12.90;99.90;;;;;;5052248;28;20033;-65
2023/09/30 01:58:35;;;;;;;23.98;6.50;;;12.90;99.90;;;;;;5052470;28;20053;-65
2023/09/30 02:01:03;;;;;;;18.60;6.20;;;12.90;99.90;;;;;;5059388;28;20115;-66
2023/09/30 02:03:29;;;;;;;15.75;6.10;;;13.00;99.90;;;;;;5075360;28;20128;-66
2023/09/30 02:05:55;;;;;;;17.63;6.30;;;13.00;99.90;;;;;;5078729;28;20487;-66
2023/09/30 02:08:22;;;;;;;20.55;6.43;;;13.00;99.90;;;;;;5072153;28;20060;-65
2023/09/30 02:10:47;;;;;;;15.02;5.97;;;13.00;99.90;;;;;;5071318;28;20032;-66
2023/09/30 02:13:13;;;;;;;16.75;6.10;;;13.10;99.90;;;;;;5072317;28;20036;-65
2023/09/30 02:15:42;;;;;;;18.20;6.18;;;13.10;99.90;;;;;;5071999;28;20509;-65
2023/09/30 02:18:09;;;;;;;16.10;6.53;;;13.10;99.90;;;;;;5062094;28;20051;-65
2023/09/30 02:20:34;;;;;;;20.15;6.47;;;13.10;99.90;;;;;;5049987;28;20037;-65
2023/09/30 02:23:02;;;;;;;21.55;6.82;;;13.10;99.90;;;;;;5050255;28;20039;-64
2023/09/30 02:25:27;;;;;;;15.68;6.93;;;13.10;99.90;;;;;;5050082;28;20548;-65
2023/09/30 02:27:54;;;;;;;20.08;6.78;;;13.10;99.90;;;;;;5059895;28;20107;-66
2023/09/30 02:30:20;;;;;;;19.02;6.25;;;13.10;99.90;;;;;;5070733;28;20036;-64
2023/09/30 02:32:46;;;;;;;18.73;6.90;;;13.00;99.90;;;;;;5071275;28;20487;-64
2023/09/30 02:35:13;;;;;;;19.55;7.43;;;13.10;99.90;;;;;;5070802;28;20040;-65
2023/09/30 02:37:40;;;;;;;18.27;7.07;;;13.10;99.90;;;;;;5071766;28;20033;-65
2023/09/30 02:40:09;;;;;;;16.27;6.78;;;13.10;99.90;;;;;;5072083;28;20024;-65
2023/09/30 02:42:36;;;;;;;17.48;7.18;;;13.10;99.90;;;;;;5072007;28;20032;-65
2023/09/30 02:45:02;;;;;;;21.55;7.90;;;13.10;99.90;;;;;;5064857;28;20038;-65
2023/09/30 02:47:28;;;;;;;17.38;7.70;;;13.10;99.90;;;;;;5071403;28;20365;-65
2023/09/30 02:49:56;;;;;;;20.25;7.72;;;13.10;99.90;;;;;;5071886;28;20059;-66
2023/09/30 02:52:22;;;;;;;18.02;7.43;;;13.10;99.90;;;;;;5061545;28;20029;-65
2023/09/30 02:54:48;;;;;;;21.92;8.73;;;13.10;99.90;;;;;;5051729;28;20378;-65
2023/09/30 02:57:15;;;;;;;19.85;8.35;;;13.10;99.90;;;;;;5051895;28;20041;-65
2023/09/30 02:59:40;;;;;;;25.83;8.82;;;13.10;99.90;;;;;;5051535;28;20037;-65
2023/09/30 03:02:06;;;;;;;20.67;8.93;;;13.10;99.90;;;;;;5054854;28;20033;-65
2023/09/30 03:04:32;;;;;;;19.27;7.93;;;13.10;99.90;;;;;;5067386;28;20029;-64
2023/09/30 03:06:58;;;;;;;19.13;7.20;;;13.10;99.90;;;;;;5075683;28;20028;-65
2023/09/30 03:09:24;;;;;;;16.88;7.57;;;13.10;99.90;;;;;;5065156;28;20036;-64
2023/09/30 03:11:49;;;;;;;21.05;8.02;;;13.20;99.90;;;;;;5055528;28;20083;-64
2023/09/30 03:14:15;;;;;;;25.92;14.00;;;13.20;99.90;;;;;;5055261;28;20040;-65
2023/09/30 03:16:42;;;;;;;20.80;8.75;;;13.20;99.90;;;;;;5055141;28;20037;-64
2023/09/30 03:19:08;;;;;;;20.58;8.82;;;13.30;99.90;;;;;;5067994;28;20503;-65
2023/09/30 03:21:36;;;;;;;17.45;7.68;;;13.30;99.90;;;;;;5076166;28;20032;-65
2023/09/30 03:24:07;;;;;;;19.48;8.93;;;13.30;99.90;;;;;;5075429;28;20021;-65
2023/09/30 03:26:34;;;;;;;20.63;8.30;;;13.30;99.90;;;;;;5063688;28;20033;-65
2023/09/30 03:29:00;;;;;;;15.52;7.72;;;13.30;99.90;;;;;;5054935;28;20469;-65
2023/09/30 03:31:25;;;;;;;21.52;8.85;;;13.30;99.90;;;;;;5054921;28;20086;-65
2023/09/30 03:33:53;;;;;;;24.38;9.75;;;13.30;99.90;;;;;;5055012;28;20053;-65
2023/09/30 03:36:21;;;;;;;19.08;7.97;;;13.40;99.90;;;;;;5055165;28;20040;-65
2023/09/30 03:38:46;;;;;;;18.55;8.73;;;13.40;99.90;;;;;;5055151;28;20036;-65
2023/09/30 03:41:13;;;;;;;18.77;8.55;;;13.40;99.90;;;;;;5054995;28;20025;-64
2023/09/30 03:43:41;;;;;;;21.42;8.43;;;13.40;99.90;;;;;;5054841;28;20029;-64
2023/09/30 03:46:07;;;;;;;18.90;8.70;;;13.40;99.90;;;;;;5067460;28;20033;-65
2023/09/30 03:48:38;;;;;;;20.00;8.48;;;13.50;99.90;;;;;;5073447;28;20192;-65
2023/09/30 03:51:25;;;;;;;19.40;9.05;;;13.50;99.90;;;;;;5074793;28;20052;-64
2023/09/30 03:53:51;;;;;;;17.63;7.78;;;13.60;99.90;;;;;;5055274;28;20044;-64
2023/09/30 03:56:18;;;;;;;15.27;7.25;;;13.60;99.90;;;;;;5054545;28;20464;-65
2023/09/30 03:58:44;;;;;;;13.68;7.20;;;13.70;99.90;;;;;;5070255;28;20035;-65
2023/09/30 04:01:11;;;;;;;17.80;7.22;;;13.70;99.90;;;;;;5057681;28;20037;-64
2023/09/30 04:03:39;;;;;;;19.17;8.05;;;13.80;99.90;;;;;;5058860;28;20028;-64
2023/09/30 04:06:06;;;;;;;17.23;8.30;;;13.70;99.90;;;;;;5074509;28;20487;-66
2023/09/30 04:08:33;;;;;;;16.52;7.18;;;13.70;99.90;;;;;;5070799;28;20484;-65
2023/09/30 04:10:59;;;;;;;19.38;8.38;;;13.80;99.90;;;;;;5082428;28;20032;-64
2023/09/30 04:13:25;;;;;;;25.02;8.20;;;13.80;99.90;;;;;;5091936;28;20047;-65
2023/09/30 04:15:50;;;;;;;19.35;9.57;;;13.80;99.90;;;;;;5080033;28;20032;-65
2023/09/30 04:18:16;;;;;;;19.85;9.88;;;13.90;99.90;;;;;;5091051;28;20100;-65
2023/09/30 04:20:42;;;;;;;24.10;9.38;;;13.90;99.90;;;;;;5079483;28;20373;-64
2023/09/30 04:23:09;;;;;;;23.35;9.10;;;13.90;99.90;;;;;;5085595;28;20051;-65
2023/09/30 04:25:35;;;;;;;16.35;6.88;;;13.90;99.90;;;;;;5086890;28;20038;-66
2023/09/30 04:28:02;;;;;;;23.75;9.90;;;13.90;99.90;;;;;;5089226;28;20028;-65
2023/09/30 04:30:29;;;;;;;16.02;6.90;;;13.90;99.90;;;;;;5091368;28;20056;-65
2023/09/30 04:32:55;;;;;;;18.98;6.93;;;13.90;99.90;;;;;;5081052;28;20024;-65
2023/09/30 04:35:21;;;;;;;24.60;10.25;;;13.90;99.90;;;;;;5083523;28;20035;-66
2023/09/30 04:37:47;;;;;;;22.55;9.05;;;14.00;99.90;;;;;;5073395;28;20040;-65
2023/09/30 04:40:15;;;;;;;21.60;8.70;;;14.00;99.90;;;;;;5077818;28;20034;-64
2023/09/30 04:42:49;;;;;;;18.23;7.22;;;13.90;99.90;;;;;;5082806;28;20051;-64
2023/09/30 04:45:24;;;;;;;17.88;7.15;;;13.90;99.90;;;;;;5074483;28;20110;-66
2023/09/30 04:47:50;;;;;;;18.38;7.93;;;13.80;99.90;;;;;;5074130;28;20052;-65
2023/09/30 04:50:16;;;;;;;20.10;7.55;;;13.80;99.90;;;;;;5073551;28;20133;-65
2023/09/30 04:52:42;;;;;;;19.60;7.82;;;13.70;99.90;;;;;;5073849;28;20028;-65
2023/09/30 04:55:08;;;;;;;22.80;9.77;;;13.60;99.90;;;;;;5073780;28;20048;-65
2023/09/30 04:57:34;;;;;;;26.08;11.50;;;13.60;99.90;;;;;;5070062;28;20083;-65
2023/09/30 05:00:00;;;;;;;18.33;7.53;;;13.50;99.90;;;;;;5056906;28;20025;-65
2023/09/30 05:02:26;;;;;;;17.02;6.82;;;13.50;99.90;;;;;;5073544;28;20032;-65
2023/09/30 05:04:53;;;;;;;21.23;7.53;;;13.40;99.90;;;;;;5087908;28;20035;-65
2023/09/30 05:07:22;;;;;;;17.75;7.05;;;13.40;99.90;;;;;;5088145;28;20037;-65
2023/09/30 05:09:48;;;;;;;18.42;7.32;;;13.40;99.90;;;;;;5073570;28;20032;-65
2023/09/30 05:12:14;;;;;;;19.92;8.15;;;13.40;99.90;;;;;;5073510;28;20036;-64
2023/09/30 05:14:40;;;;;;;22.60;9.27;;;13.40;99.90;;;;;;5073348;28;20040;-65
2023/09/30 05:17:06;;;;;;;22.00;8.65;;;13.30;99.90;;;;;;5073179;28;20020;-65
2023/09/30 05:19:32;;;;;;;20.83;8.15;;;13.30;99.90;;;;;;5073368;28;20028;-65
2023/09/30 05:21:57;;;;;;;21.33;9.57;;;13.20;99.90;;;;;;5071676;28;20120;-67
2023/09/30 05:24:23;;;;;;;17.90;8.10;;;13.20;99.90;;;;;;5070512;28;20058;-65
2023/09/30 05:26:48;;;;;;;18.77;7.93;;;13.10;99.90;;;;;;5072916;28;20540;-65
2023/09/30 05:29:14;;;;;;;19.95;8.65;;;13.10;99.90;;;;;;5072923;28;20495;-65
2023/09/30 05:31:40;;;;;;;21.25;9.10;;;13.00;99.90;;;;;;5073189;28;20043;-64
2023/09/30 05:34:05;;;;;;;21.27;8.05;;;13.00;99.90;;;;;;5072223;28;20127;-65
2023/09/30 05:36:31;;;;;;;19.15;8.07;;;13.00;99.90;;;;;;5073160;28;20063;-65
2023/09/30 05:38:57;;;;;;;23.85;8.88;;;12.90;99.90;;;;;;5068080;28;20021;-65
2023/09/30 05:41:23;;;;;;;24.55;9.40;;;12.90;99.90;;;;;;5072717;28;20393;-65
2023/09/30 05:43:48;;;;;;;23.83;11.13;;;12.90;99.90;;;;;;5072884;28;20029;-65
2023/09/30 05:46:15;;;;;;;21.35;8.57;;;12.90;99.90;;;;;;5073030;28;20441;-65
2023/09/30 05:48:41;;;;;;;22.83;9.60;;;12.90;99.90;;;;;;5071941;28;20021;-66
2023/09/30 05:51:07;;;;;;;23.00;11.02;;;12.90;99.90;;;;;;5074398;28;20051;-65
2023/09/30 05:53:33;;;;;;;21.52;9.32;;;12.90;99.90;;;;;;5073000;28;20032;-65
2023/09/30 05:55:59;;;;;;;21.35;9.27;;;12.80;99.90;;;;;;5073327;28;20024;-65
2023/09/30 05:58:26;;;;;;;22.80;8.82;;;12.90;99.90;;;;;;5074076;28;20028;-65
2023/09/30 06:00:53;;;;;;;20.85;8.73;;;12.90;99.90;;;;;;5073828;28;20032;-65
2023/09/30 06:03:18;;;;;;;24.30;10.05;;;12.80;99.90;;;;;;5070314;28;20036;-65
2023/09/30 06:05:44;;;;;;;26.15;10.90;;;12.90;99.90;;;;;;5073196;28;20032;-65
2023/09/30 06:08:16;;;;;;;20.98;9.77;;;12.90;99.90;;;;;;5071760;28;20064;-65
2023/09/30 06:10:45;;;;;;;25.33;10.30;;;12.90;99.90;;;;;;5071527;28;20029;-65
2023/09/30 06:13:12;;;;;;;21.98;8.90;;;12.90;99.90;;;;;;5066451;28;20116;-65
2023/09/30 06:15:40;;;;;;;20.23;9.00;;;13.00;99.90;;;;;;5072994;28;20120;-65
2023/09/30 06:18:06;;;;;;;22.52;9.70;;;13.00;99.90;;;;;;5068686;28;20097;-65
2023/09/30 06:20:33;;;;;;;21.48;10.18;;;13.00;99.90;;;;;;5071754;28;20024;-65
2023/09/30 06:23:00;;;;;;;25.08;9.57;;;13.10;99.90;;;;;;5067481;28;20293;-65
2023/09/30 06:25:27;;;;;;;21.85;10.07;;;13.10;99.90;;;;;;5069632;28;20087;-65
2023/09/30 06:27:54;;;;;;;21.15;8.75;;;13.20;99.90;;;;;;5067478;28;20481;-65
2023/09/30 06:30:20;;;;;;;19.27;9.05;;;13.20;99.90;;;;;;5071440;28;20025;-65
2023/09/30 06:32:47;;;;;;;24.92;9.38;;;13.30;99.90;;;;;;5071277;28;20062;-65
2023/09/30 06:35:13;;;;;;;20.70;9.52;;;13.30;99.90;;;;;;5073166;28;20117;-65
2023/09/30 06:37:40;;;;;;;20.30;10.20;;;13.30;99.90;;;;;;5077155;28;20519;-65
2023/09/30 06:40:12;;;;;;;21.80;10.57;;;13.30;99.90;;;;;;5076931;28;20067;-65
2023/09/30 06:42:39;;;;;;;21.73;9.95;;;13.40;99.90;;;;;;5073127;28;20032;-65
2023/09/30 06:45:06;;;;;;;20.40;10.27;;;13.50;99.90;;;;;;5073322;28;20040;-65
2023/09/30 06:47:34;;;;;;;22.98;10.02;;;13.60;99.90;;;;;;5075531;28;20473;-66
2023/09/30 06:50:07;;;;;;;21.63;9.45;;;13.70;99.90;;;;;;5075289;28;20377;-66
2023/09/30 06:52:45;;;;;;;21.40;9.48;;;13.80;99.90;;;;;;5075140;28;20024;-65
2023/09/30 06:55:16;;;;;;;19.08;9.43;;;13.80;99.90;;;;;;5075399;28;20056;-64
2023/09/30 06:57:42;;;;;;;21.33;9.38;;;13.90;99.90;;;;;;5075053;28;20033;-64
2023/09/30 07:00:09;;;;;;;22.58;10.05;;;14.00;99.90;;;;;;5074892;28;20076;-65
2023/09/30 07:02:36;;;;;;;21.02;9.48;;;14.20;99.90;;;;;;5075240;28;20040;-64
2023/09/30 07:05:08;;;;;;;21.20;9.68;;;14.30;99.90;;;;;;5075315;28;20150;-66
2023/09/30 07:07:34;;;;;;;22.30;10.23;;;14.40;99.90;;;;;;5074836;28;20092;-66
2023/09/30 07:10:00;;;;;;;19.88;9.18;;;14.60;99.90;;;;;;5074753;28;20112;-65
2023/09/30 07:12:26;;;;;;;19.92;9.38;;;14.70;99.90;;;;;;5075207;28;20033;-65
2023/09/30 07:14:51;;;;;;;20.55;9.75;;;14.80;99.90;;;;;;5074837;28;20075;-65
2023/09/30 07:17:17;;;;;;;20.50;7.97;;;15.00;99.90;;;;;;5074922;28;20032;-64
2023/09/30 07:19:42;;;;;;;19.92;8.00;;;15.30;99.90;;;;;;5075364;28;20031;-65
2023/09/30 07:22:08;;;;;;;17.30;8.07;;;15.50;99.90;;;;;;5075402;28;20020;-65
2023/09/30 07:24:34;;;;;;;18.50;9.32;;;15.70;99.90;;;;;;5072764;28;20043;-64
2023/09/30 07:26:59;;;;;;;15.30;7.90;;;15.90;99.90;;;;;;5070898;28;20038;-64
2023/09/30 07:29:25;;;;;;;22.00;8.00;;;16.10;99.90;;;;;;5080268;28;20391;-65
2023/09/30 07:31:51;;;;;;;20.15;7.78;;;16.20;99.90;;;;;;5078462;28;20056;-64
2023/09/30 07:34:16;;;;;;;19.95;7.55;;;16.30;99.90;;;;;;5076653;28;20055;-65
2023/09/30 07:36:42;;;;;;;15.95;7.22;;;16.40;99.90;;;;;;5076696;28;20039;-65
2023/09/30 07:39:08;;;;;;;18.55;8.30;;;16.50;99.90;;;;;;5091693;28;20028;-65
2023/09/30 07:41:36;;;;;;;17.48;7.13;;;16.70;99.90;;;;;;5085872;28;20028;-64
2023/09/30 07:44:02;;;;;;;19.98;8.15;;;16.80;99.90;;;;;;5087646;28;20480;-65
2023/09/30 07:46:28;;;;;;;22.27;8.13;;;16.90;99.90;;;;;;5085505;28;20055;-65
2023/09/30 07:48:55;;;;;;;16.42;7.10;;;17.10;99.90;;;;;;5080346;28;20059;-65
2023/09/30 07:51:20;;;;;;;18.20;6.50;;;17.30;99.90;;;;;;5079865;28;20265;-64
2023/09/30 07:53:46;;;;;;;17.08;7.00;;;17.40;99.90;;;;;;5094702;28;20488;-65
2023/09/30 07:56:11;;;;;;;18.35;6.10;;;17.70;99.90;;;;;;5086196;28;20024;-65
2023/09/30 07:58:37;;;;;;;15.43;5.90;;;18.20;99.90;;;;;;5087152;28;20020;-65
2023/09/30 08:01:04;;;;;;;15.15;5.80;;;18.70;99.90;;;;;;5078712;28;20028;-65
2023/09/30 08:03:29;;;;;;;18.90;5.70;;;19.40;99.90;;;;;;5093774;28;20036;-65
2023/09/30 08:05:55;;;;;;;15.48;4.85;;;20.30;99.90;;;;;;5088320;28;20032;-66
2023/09/30 08:08:22;;;;;;;14.65;4.70;;;21.30;99.90;;;;;;5080574;28;20032;-66
2023/09/30 08:10:48;;;;;;;11.65;4.43;;;22.10;99.90;;;;;;5088564;28;20441;-66
2023/09/30 08:13:13;;;;;;;14.38;4.30;;;22.90;99.90;;;;;;5076064;28;20021;-65
2023/09/30 08:15:39;;;;;;;18.48;4.32;;;23.70;99.90;;;;;;5081784;28;20055;-65
2023/09/30 08:18:06;;;;;;;12.45;4.00;;;24.40;99.90;;;;;;5086485;28;20078;-65
2023/09/30 08:20:31;;;;;;;13.77;3.97;;;25.10;99.90;;;;;;5085595;28;20535;-66
2023/09/30 08:22:57;;;;;;;12.57;3.42;;;25.70;99.90;;;;;;5079188;28;20063;-66
2023/09/30 08:25:22;;;;;;;10.20;3.25;;;26.20;99.90;;;;;;5082350;28;20056;-65
2023/09/30 08:27:49;;;;;;;7.65;3.05;;;26.80;99.00;;;;;;5088819;28;20377;-65
2023/09/30 08:30:15;;;;;;;11.73;3.08;;;27.30;98.70;;;;;;5081524;28;20028;-65
2023/09/30 08:32:41;;;;;;;11.68;3.58;;;27.60;97.70;;;;;;5073743;28;21534;-64
2023/09/30 08:35:07;;;;;;;12.80;3.50;;;27.90;97.30;;;;;;5075212;28;20120;-64
2023/09/30 08:37:33;;;;;;;11.77;3.70;;;28.10;97.30;;;;;;5077306;28;20042;-64
2023/09/30 08:39:59;;;;;;;10.63;3.33;;;28.60;96.90;;;;;;5073687;28;20031;-65
2023/09/30 08:42:31;;;;;;;12.30;3.20;;;29.10;96.20;;;;;;5084175;28;20101;-65
2023/09/30 08:44:56;;;;;;;10.48;3.03;;;29.50;95.30;;;;;;5079055;28;20042;-65
2023/09/30 08:47:25;;;;;;;12.07;2.97;;;29.50;95.00;;;;;;5089916;28;20107;-65
2023/09/30 08:49:56;;;;;;;11.35;4.60;;;29.70;94.90;;;;;;5076956;28;20054;-65
2023/09/30 08:52:23;;;;;;;10.07;3.70;;;30.00;94.60;;;;;;5084876;28;20030;-65
2023/09/30 08:54:48;;;;;;;9.10;3.08;;;30.20;94.10;;;;;;5079729;28;20102;-65
2023/09/30 08:57:18;;;;;;;11.77;3.15;;;30.40;94.50;;;;;;5082122;28;20240;-65
2023/09/30 08:59:45;;;;;;;13.23;3.13;;;30.70;93.50;;;;;;5088374;28;20064;-65
2023/09/30 09:02:10;;;;;;;12.85;4.75;;;31.10;92.90;;;;;;5081676;28;20427;-65
2023/09/30 09:04:37;;;;;;;13.65;5.22;;;31.20;92.90;;;;;;5085114;28;20024;-65
2023/09/30 09:07:02;;;;;;;11.50;2.35;;;31.30;92.90;;;;;;5085274;28;20036;-65
2023/09/30 09:09:28;;;;;;;8.50;3.03;;;31.30;91.90;;;;;;5090394;28;20218;-65
2023/09/30 09:11:55;;;;;;;12.77;4.45;;;30.70;92.80;;;;;;5072900;28;20021;-65
2023/09/30 09:14:38;;;;;;;10.48;3.40;;;30.80;92.50;;;;;;5076012;28;20097;-65
2023/09/30 09:17:06;;;;;;;9.23;2.53;;;31.30;92.10;;;;;;5089267;28;20035;-65
2023/09/30 09:19:31;;;;;;;9.80;2.88;;;31.70;92.00;;;;;;5069991;28;20378;-65
2023/09/30 09:21:59;;;;;;;9.55;2.95;;;32.10;91.00;;;;;;5078243;28;20031;-65
2023/09/30 09:24:35;;;;;;;11.18;2.30;;;32.10;90.90;;;;;;5075839;28;20059;-65
2023/09/30 09:27:06;;;;;;;9.98;2.50;;;31.50;90.90;;;;;;5091159;28;20032;-66
2023/09/30 09:29:33;;;;;;;12.67;3.77;;;30.70;91.40;;;;;;5076027;28;20024;-65
2023/09/30 09:32:17;;;;;;;12.07;2.90;;;29.80;92.20;;;;;;5069199;28;20161;-66
2023/09/30 09:34:44;;;;;;;8.77;2.50;;;29.00;93.20;;;;;;5086000;28;20543;-65
2023/09/30 09:37:18;;;;;;;11.23;2.45;;;28.30;93.30;;;;;;5076259;28;20063;-66
2023/09/30 09:39:53;;;;;;;8.73;2.25;;;27.50;93.10;;;;;;5072360;28;20029;-66
2023/09/30 09:42:29;;;;;;;9.85;3.10;;;26.70;93.70;;;;;;5072253;28;20036;-66
2023/09/30 09:44:57;;;;;;;9.63;2.38;;;26.20;94.20;;;;;;5083428;28;20028;-66
2023/09/30 09:47:23;;;;;;;12.30;2.50;;;26.70;94.10;;;;;;5078770;28;20028;-65
2023/09/30 09:49:55;;;;;;;10.50;2.50;;;27.80;93.50;;;;;;5078158;28;20079;-66
2023/09/30 09:52:21;;;;;;;7.07;1.73;;;28.90;92.50;;;;;;5082208;28;20062;-66
2023/09/30 09:54:47;;;;;;;8.25;2.40;;;30.00;91.30;;;;;;5064056;28;20075;-65
2023/09/30 09:57:14;;;;;;;9.60;2.92;;;30.20;90.30;;;;;;5086224;28;20038;-65
2023/09/30 09:59:40;;;;;;;8.70;2.28;;;30.30;89.50;;;;;;5076928;28;20049;-65
2023/09/30 10:02:14;;;;;;;4.53;1.40;;;30.40;88.90;;;;;;5083562;28;20376;-65
2023/09/30 10:04:44;;;;;;;9.05;2.45;;;30.10;90.10;;;;;;5074839;28;20111;-65
2023/09/30 10:07:20;;;;;;;8.57;2.03;;;30.10;90.10;;;;;;5077922;28;20496;-65
2023/09/30 10:09:50;;;;;;;10.57;2.38;;;30.60;90.10;;;;;;5077257;28;20029;-66
2023/09/30 10:12:16;;;;;;;5.55;1.63;;;31.30;89.50;;;;;;5076871;28;20072;-66
2023/09/30 10:14:43;;;;;;;6.07;1.90;;;31.20;89.20;;;;;;5078319;28;20115;-65
2023/09/30 10:17:09;;;;;;;7.30;1.83;;;30.80;87.90;;;;;;5085142;28;20068;-65
2023/09/30 10:19:35;;;;;;;13.57;3.35;;;30.00;89.30;;;;;;5075871;28;20521;-66
2023/09/30 10:22:33;;;;;;;6.88;2.28;;;29.20;90.20;;;;;;5087730;28;20028;-65
2023/09/30 10:25:00;;;;;;;8.95;1.90;;;28.50;90.50;;;;;;5043056;28;20132;-65
2023/09/30 10:27:31;;;;;;;10.13;2.13;;;28.60;90.60;;;;;;5088258;28;20098;-66
2023/09/30 10:30:15;;;;;;;7.57;2.10;;;29.20;90.30;;;;;;5084297;28;20074;-66
2023/09/30 10:32:53;;;;;;;6.82;1.75;;;29.40;89.00;;;;;;5081273;28;20028;-65
2023/09/30 10:35:20;;;;;;;8.73;2.13;;;28.80;88.50;;;;;;5061302;28;20036;-66
2023/09/30 10:37:47;;;;;;;7.85;1.85;;;28.00;90.20;;;;;;5086434;28;20480;-66
2023/09/30 10:40:42;;;;;;;7.28;2.13;;;28.10;90.60;;;;;;5071686;28;20064;-66
2023/09/30 10:43:37;;;;;;;10.43;2.10;;;28.40;90.20;;;;;;5047595;28;20131;-66
2023/09/30 10:46:24;;;;;;;6.45;1.90;;;28.70;89.30;;;;;;5062085;28;20035;-66
2023/09/30 10:48:50;;;;;;;7.53;1.73;;;28.70;88.40;;;;;;5052619;28;20047;-65
2023/09/30 10:51:23;;;;;;;10.23;2.38;;;28.30;89.50;;;;;;5072765;28;20041;-65
2023/09/30 10:53:56;;;;;;;9.68;2.20;;;28.30;90.10;;;;;;5063099;28;20033;-65
2023/09/30 10:56:23;;;;;;;11.75;2.38;;;28.40;89.70;;;;;;5063440;28;20047;-65
2023/09/30 10:58:50;;;;;;;7.72;2.10;;;28.40;89.40;;;;;;5085899;28;20107;-65
2023/09/30 11:01:18;;;;;;;7.38;2.30;;;28.20;89.70;;;;;;5064893;28;20036;-65
2023/09/30 11:03:45;;;;;;;7.28;2.25;;;27.90;90.40;;;;;;5080796;28;20035;-65
2023/09/30 11:06:16;;;;;;;7.22;2.00;;;27.90;89.70;;;;;;5076901;28;20055;-65
2023/09/30 11:08:46;;;;;;;8.98;2.40;;;27.60;90.50;;;;;;5076902;28;20082;-65
2023/09/30 11:11:14;;;;;;;8.30;2.33;;;27.00;91.30;;;;;;5072036;28;20060;-65
2023/09/30 11:13:40;;;;;;;6.85;2.20;;;26.70;91.70;;;;;;5086503;28;20496;-65
2023/09/30 11:16:05;;;;;;;7.65;2.30;;;26.70;91.70;;;;;;5083841;28;20055;-65
2023/09/30 11:18:32;;;;;;;9.35;2.53;;;26.90;92.20;;;;;;5083416;28;20346;-66
2023/09/30 11:21:12;;;;;;;8.85;2.13;;;27.10;92.20;;;;;;5076744;28;20024;-65
2023/09/30 11:23:38;;;;;;;11.35;2.22;;;27.40;92.30;;;;;;5063530;28;20028;-66
2023/09/30 11:26:07;;;;;;;9.13;2.15;;;27.60;92.40;;;;;;5087180;28;20373;-66
2023/09/30 11:28:39;;;;;;;9.77;2.00;;;28.00;91.60;;;;;;5087314;28;20510;-66
2023/09/30 11:31:11;;;;;;;9.38;2.03;;;28.30;91.20;;;;;;5078702;28;20055;-66
2023/09/30 11:33:51;;;;;;;8.15;2.30;;;28.70;91.00;;;;;;5069327;28;20051;-66
2023/09/30 11:36:19;;;;;;;11.30;2.30;;;28.60;90.90;;;;;;5084629;28;20056;-66
2023/09/30 11:38:49;;;;;;;11.05;2.40;;;28.70;91.30;;;;;;5081402;28;20028;-66
2023/09/30 11:41:18;;;;;;;6.40;2.30;;;29.10;91.00;;;;;;5091483;28;20032;-66
2023/09/30 11:44:07;;;;;;;8.70;2.10;;;29.50;90.00;;;;;;5079701;28;20467;-66
2023/09/30 11:46:57;;;;;;;11.38;2.30;;;29.50;89.10;;;;;;5083485;28;20036;-66
2023/09/30 11:49:39;;;;;;;8.88;2.55;;;29.20;89.90;;;;;;5090791;28;20063;-66
2023/09/30 11:52:07;;;;;;;13.25;4.07;;;28.60;90.20;;;;;;5087263;28;20093;-65
2023/09/30 11:54:42;;;;;;;8.43;2.15;;;28.00;90.20;;;;;;5091784;28;20525;-66
2023/09/30 11:57:18;;;;;;;8.50;2.40;;;27.40;90.40;;;;;;5078249;28;20029;-66
2023/09/30 11:59:47;;;;;;;10.63;2.17;;;26.60;91.10;;;;;;5063984;28;20038;-65
2023/09/30 12:02:19;;;;;;;9.65;2.80;;;26.00;91.60;;;;;;5085231;28;20016;-65
2023/09/30 12:04:49;;;;;;;7.78;2.53;;;25.40;92.20;;;;;;5088166;28;20139;-65
2023/09/30 12:07:15;;;;;;;11.15;2.15;;;25.10;92.80;;;;;;5078125;28;20050;-65
2023/09/30 12:09:40;;;;;;;11.90;2.72;;;24.80;93.30;;;;;;5090100;28;20028;-66
2023/09/30 12:12:10;;;;;;;13.07;3.10;;;24.60;93.70;;;;;;5082326;28;20085;-66
2023/09/30 12:14:36;;;;;;;16.00;3.17;;;24.40;93.80;;;;;;5094017;28;20480;-65
2023/09/30 12:17:01;;;;;;;11.70;2.72;;;24.20;93.90;;;;;;5078910;28;20063;-65
2023/09/30 12:19:27;;;;;;;11.40;3.42;;;24.10;94.10;;;;;;5090552;28;20102;-66
2023/09/30 12:21:53;;;;;;;7.78;2.83;;;24.20;94.50;;;;;;5088389;28;20112;-66
2023/09/30 12:24:23;;;;;;;12.55;3.03;;;24.60;94.50;;;;;;5084092;28;20549;-66
2023/09/30 12:26:51;;;;;;;10.52;2.72;;;24.90;94.40;;;;;;5076790;28;20082;-66
2023/09/30 12:29:23;;;;;;;9.50;3.03;;;25.30;94.10;;;;;;5090041;28;20039;-66
2023/09/30 12:31:50;;;;;;;10.13;2.50;;;25.50;94.00;;;;;;5078863;28;20443;-66
2023/09/30 12:34:16;;;;;;;10.52;3.30;;;25.80;93.90;;;;;;5083413;28;20079;-66
2023/09/30 12:36:43;;;;;;;15.55;4.57;;;25.90;93.50;;;;;;5076663;28;20037;-65
2023/09/30 12:39:13;;;;;;;12.60;4.18;;;26.00;93.60;;;;;;5090227;28;20051;-66
2023/09/30 12:41:43;;;;;;;11.82;3.00;;;25.90;93.20;;;;;;5078036;28;20020;-66